createdAt,value
2022-08-26T00:01:18.696Z,19.40
2022-08-26T00:06:33.302Z,19.40
2022-08-26T00:11:35.462Z,19.30
2022-08-26T00:21:50.057Z,19.10
2022-08-26T00:36:57.328Z,19.20
2022-08-26T00:47:09.961Z,19.00
2022-08-26T00:52:19.675Z,19.00
2022-08-26T00:57:23.302Z,19.00
2022-08-26T01:02:25.581Z,19.10
2022-08-26T01:07:30.302Z,18.90
2022-08-26T01:12:38.816Z,18.90
2022-08-26T01:17:42.177Z,18.90
2022-08-26T01:23:01.526Z,18.80
2022-08-26T01:28:08.599Z,19.00
2022-08-26T01:33:15.165Z,18.50
2022-08-26T01:38:18.461Z,18.70
2022-08-26T01:54:06.071Z,18.30
2022-08-26T01:59:13.299Z,18.20
2022-08-26T02:04:33.580Z,18.80
2022-08-26T02:09:41.277Z,18.60
2022-08-26T02:14:51.229Z,18.60
2022-08-26T02:19:53.608Z,18.60
2022-08-26T02:24:57.467Z,18.40
2022-08-26T02:30:08.882Z,18.50
2022-08-26T02:35:18.302Z,18.30
2022-08-26T02:40:28.019Z,18.40
2022-08-26T02:45:30.154Z,18.00
2022-08-26T02:50:31.962Z,18.20
2022-08-26T02:55:34.443Z,18.00
2022-08-26T03:00:38.568Z,17.90
2022-08-26T03:05:52.544Z,18.20
2022-08-26T03:10:54.620Z,18.20
2022-08-26T03:15:56.780Z,18.00
2022-08-26T03:20:59.476Z,18.00
2022-08-26T03:26:01.945Z,18.00
2022-08-26T03:31:03.733Z,17.80
2022-08-26T03:36:07.796Z,17.90
2022-08-26T03:41:12.317Z,17.90
2022-08-26T03:46:14.921Z,18.00
2022-08-26T03:51:19.405Z,18.00
2022-08-26T03:56:21.367Z,18.00
2022-08-26T04:01:23.322Z,17.80
2022-08-26T04:06:31.182Z,17.90
2022-08-26T04:11:35.869Z,17.80
2022-08-26T04:16:42.080Z,17.70
2022-08-26T04:21:46.658Z,17.90
2022-08-26T04:26:49.187Z,17.90
2022-08-26T04:31:55.505Z,17.70
2022-08-26T04:36:57.933Z,17.70
2022-08-26T04:42:01.781Z,17.70
2022-08-26T04:47:04.819Z,17.50
2022-08-26T04:52:06.934Z,17.50
2022-08-26T04:57:09.768Z,17.60
2022-08-26T05:02:11.942Z,17.80
2022-08-26T05:07:13.671Z,17.90
2022-08-26T05:12:19.690Z,17.50
2022-08-26T05:17:21.885Z,17.80
2022-08-26T05:32:29.398Z,17.90
2022-08-26T05:42:42.093Z,18.20
2022-08-26T05:52:52.403Z,18.40
2022-08-26T05:58:05.407Z,18.50
2022-08-26T06:03:09.032Z,18.50
2022-08-26T06:13:14.799Z,18.70
2022-08-26T06:18:20.976Z,19.10
2022-08-26T06:23:42.856Z,19.40
2022-08-26T06:28:47.841Z,19.60
2022-08-26T06:33:50.485Z,19.70
2022-08-26T06:38:54.402Z,20.00
2022-08-26T06:43:57.324Z,20.00
2022-08-26T06:48:59.839Z,20.20
2022-08-26T06:54:03.161Z,20.20
2022-08-26T06:59:07.631Z,20.30
2022-08-26T07:04:10.358Z,20.50
2022-08-26T07:09:12.478Z,21.00
2022-08-26T07:14:17.135Z,21.00
2022-08-26T07:19:28.541Z,21.20
2022-08-26T07:24:35.704Z,21.60
2022-08-26T07:29:39.480Z,21.90
2022-08-26T07:34:41.966Z,22.10
2022-08-26T07:39:44.544Z,22.70
2022-08-26T07:44:46.390Z,22.80
2022-08-26T07:49:48.091Z,22.50
2022-08-26T07:54:56.483Z,22.60
2022-08-26T07:59:58.488Z,23.10
2022-08-26T08:05:00.455Z,22.70
2022-08-26T08:10:05.540Z,22.50
2022-08-26T08:15:15.491Z,22.60
2022-08-26T08:20:17.610Z,22.30
2022-08-26T08:25:20.512Z,22.20
2022-08-26T08:35:26.475Z,22.80
2022-08-26T08:40:29.219Z,22.90
2022-08-26T08:45:44.592Z,23.30
2022-08-26T08:51:27.502Z,22.80
2022-08-26T08:56:35.430Z,22.90
2022-08-26T09:02:03.258Z,22.80
2022-08-26T09:07:10.071Z,23.30
2022-08-26T09:12:20.790Z,23.00
2022-08-26T09:17:48.285Z,23.10
2022-08-26T09:22:51.461Z,23.80
2022-08-26T09:27:54.058Z,23.20
2022-08-26T09:33:10.828Z,23.50
2022-08-26T09:38:28.883Z,23.50
2022-08-26T09:43:31.416Z,23.50
2022-08-26T09:48:36.999Z,23.60
2022-08-26T09:53:56.591Z,23.70
2022-08-26T09:58:59.769Z,23.90
2022-08-26T10:04:14.720Z,23.70
2022-08-26T10:09:18.722Z,23.60
2022-08-26T10:14:32.447Z,23.70
2022-08-26T10:19:57.068Z,24.30
2022-08-26T10:25:03.372Z,24.70
2022-08-26T10:30:10.795Z,25.20
2022-08-26T10:35:14.955Z,24.40
2022-08-26T10:40:49.091Z,24.80
2022-08-26T10:45:54.593Z,26.00
2022-08-26T10:50:57.246Z,24.50
2022-08-26T10:56:25.376Z,24.40
2022-08-26T11:01:43.289Z,24.20
2022-08-26T11:06:48.177Z,24.10
2022-08-26T11:11:51.056Z,24.10
2022-08-26T11:16:55.210Z,24.10
2022-08-26T11:22:09.898Z,23.90
2022-08-26T11:27:32.381Z,24.10
2022-08-26T11:32:34.074Z,23.40
2022-08-26T11:37:42.566Z,24.40
2022-08-26T11:42:55.708Z,23.60
2022-08-26T11:47:57.436Z,23.50
2022-08-26T11:53:06.148Z,23.40
2022-08-26T11:58:13.088Z,22.90
2022-08-26T12:03:25.979Z,23.80
2022-08-26T12:08:31.601Z,22.10
2022-08-26T12:13:34.101Z,22.10
2022-08-26T12:18:39.149Z,21.90
2022-08-26T12:23:47.440Z,22.00
2022-08-26T12:29:20.295Z,22.00
2022-08-26T12:34:26.160Z,22.20
2022-08-26T12:39:35.569Z,22.30
2022-08-26T12:44:53.735Z,22.20
2022-08-26T12:50:07.648Z,22.30
2022-08-26T12:55:25.472Z,22.20
2022-08-26T13:00:37.448Z,22.40
2022-08-26T13:05:39.726Z,22.50
2022-08-26T13:10:45.149Z,22.70
2022-08-26T13:15:47.179Z,22.70
2022-08-26T13:25:51.969Z,22.80
2022-08-26T13:30:53.718Z,23.60
2022-08-26T13:40:59.709Z,24.50
2022-08-26T13:46:01.727Z,24.90
2022-08-26T13:51:03.516Z,24.90
2022-08-26T13:56:11.232Z,25.20
2022-08-26T14:01:13.380Z,24.70
2022-08-26T14:06:15.529Z,24.50
2022-08-26T14:11:18.310Z,25.40
2022-08-26T14:16:26.267Z,25.20
2022-08-26T14:21:33.444Z,25.40
2022-08-26T14:26:35.235Z,25.40
2022-08-26T14:31:37.777Z,25.40
2022-08-26T14:36:39.480Z,24.70
2022-08-26T14:41:53.996Z,24.80
2022-08-26T14:46:57.330Z,26.00
2022-08-26T14:51:59.349Z,26.60
2022-08-26T14:57:09.009Z,26.20
2022-08-26T15:02:13.987Z,25.20
2022-08-26T15:07:34.895Z,25.60
2022-08-26T15:12:36.992Z,25.00
2022-08-26T15:17:39.496Z,26.00
2022-08-26T15:22:42.334Z,26.20
2022-08-26T15:27:44.163Z,27.60
2022-08-26T15:32:45.921Z,25.80
2022-08-26T15:37:47.668Z,24.90
2022-08-26T15:42:54.341Z,26.00
2022-08-26T15:48:03.658Z,24.70
2022-08-26T15:53:05.335Z,25.30
2022-08-26T15:58:07.266Z,24.80
2022-08-26T16:03:10.427Z,25.00
2022-08-26T16:08:14.227Z,25.10
2022-08-26T16:13:16.222Z,24.50
2022-08-26T16:18:20.261Z,24.50
2022-08-26T16:23:26.021Z,23.90
2022-08-26T16:28:27.773Z,24.40
2022-08-26T16:38:31.717Z,23.50
2022-08-26T16:43:33.682Z,23.30
2022-08-26T16:48:35.412Z,22.90
2022-08-26T16:53:38.058Z,23.00
2022-08-26T16:58:40.265Z,23.00
2022-08-26T17:03:42.082Z,23.10
2022-08-26T17:08:44.348Z,23.40
2022-08-26T17:13:46.338Z,23.70
2022-08-26T17:18:48.054Z,23.70
2022-08-26T17:23:50.080Z,23.40
2022-08-26T17:28:52.089Z,23.10
2022-08-26T17:33:55.423Z,22.70
2022-08-26T17:39:00.604Z,22.40
2022-08-26T17:44:02.483Z,22.40
2022-08-26T17:49:05.769Z,22.50
2022-08-26T17:54:07.818Z,22.40
2022-08-26T17:59:09.634Z,22.50
2022-08-26T18:04:11.953Z,22.50
2022-08-26T18:09:13.789Z,22.50
2022-08-26T18:14:15.975Z,22.30
2022-08-26T18:19:17.771Z,22.50
2022-08-26T18:24:19.584Z,22.50
2022-08-26T18:29:21.749Z,22.50
2022-08-26T18:34:23.893Z,22.20
2022-08-26T18:44:36.413Z,21.60
2022-08-26T18:49:39.054Z,21.80
2022-08-26T18:54:40.924Z,21.50
2022-08-26T18:59:42.999Z,21.50
2022-08-26T19:04:44.963Z,21.40
2022-08-26T19:09:46.767Z,21.70
2022-08-26T19:14:55.648Z,21.60
2022-08-26T19:19:57.378Z,21.50
2022-08-26T19:25:01.308Z,21.40
2022-08-26T19:30:03.697Z,21.30
2022-08-26T19:35:06.175Z,21.30
2022-08-26T19:40:08.534Z,21.10
2022-08-26T19:45:24.352Z,21.10
2022-08-26T19:50:29.366Z,20.90
2022-08-26T19:55:39.701Z,20.70
2022-08-26T20:05:44.599Z,20.40
2022-08-26T20:10:46.864Z,20.20
2022-08-26T20:15:48.972Z,21.70
2022-08-26T20:21:09.165Z,20.30
2022-08-26T20:26:10.958Z,19.90
2022-08-26T20:31:12.924Z,19.80
2022-08-26T20:36:15.586Z,19.70
2022-08-26T20:41:18.235Z,19.60
2022-08-26T20:46:24.076Z,19.90
2022-08-26T20:51:27.053Z,19.60
2022-08-26T20:56:29.002Z,19.90
2022-08-26T21:01:34.725Z,19.80
2022-08-26T21:06:38.526Z,19.90
2022-08-26T21:11:41.253Z,19.90
2022-08-26T21:16:44.013Z,19.70
2022-08-26T21:21:48.283Z,19.60
2022-08-26T21:26:50.060Z,19.40
2022-08-26T21:31:52.190Z,19.20
2022-08-26T21:41:57.170Z,19.20
2022-08-26T21:52:04.429Z,19.10
2022-08-26T21:57:06.770Z,19.00
2022-08-26T22:02:08.934Z,19.20
2022-08-26T22:07:10.906Z,19.20
2022-08-26T22:12:12.998Z,19.40
2022-08-26T22:17:14.943Z,19.30
2022-08-26T22:22:16.700Z,19.40
2022-08-26T22:27:18.441Z,19.40
2022-08-26T22:32:20.184Z,19.30
2022-08-26T22:37:21.954Z,19.40
2022-08-26T22:42:24.110Z,19.50
2022-08-26T22:47:26.036Z,19.50
2022-08-26T22:52:28.083Z,19.20
2022-08-26T22:57:29.879Z,19.20
2022-08-26T23:02:31.815Z,19.00
2022-08-26T23:07:34.333Z,19.00
2022-08-26T23:12:37.908Z,18.90
2022-08-26T23:17:40.015Z,19.80
2022-08-26T23:22:41.905Z,19.30
2022-08-26T23:27:43.922Z,19.10
2022-08-26T23:32:46.089Z,19.10
2022-08-26T23:37:51.206Z,18.90
2022-08-26T23:42:54.477Z,19.00
2022-08-26T23:47:56.491Z,19.00
2022-08-26T23:53:09.029Z,19.00
2022-08-26T23:58:11.466Z,19.10
